sensor_id;sensor_type;location;lat;lon;timestamp;P1;durP1;ratioP1;P2;durP2;ratioP2
68300;SDS011;55146;47.468;18.806;2024-02-16T00:00:17;33.10;;;19.97;;
68300;SDS011;55146;47.468;18.806;2024-02-16T00:02:43;37.60;;;19.67;;
68300;SDS011;55146;47.468;18.806;2024-02-16T00:05:09;31.75;;;20.00;;
68300;SDS011;55146;47.468;18.806;2024-02-16T00:07:36;34.85;;;20.15;;
68300;SDS011;55146;47.468;18.806;2024-02-16T00:10:03;35.73;;;19.17;;
68300;SDS011;55146;47.468;18.806;2024-02-16T00:12:32;32.00;;;20.23;;
68300;SDS011;55146;47.468;18.806;2024-02-16T00:14:59;34.83;;;20.70;;
68300;SDS011;55146;47.468;18.806;2024-02-16T00:17:25;29.70;;;18.83;;
68300;SDS011;55146;47.468;18.806;2024-02-16T00:19:55;35.03;;;20.48;;
68300;SDS011;55146;47.468;18.806;2024-02-16T00:22:21;32.63;;;18.57;;
68300;SDS011;55146;47.468;18.806;2024-02-16T00:24:46;33.45;;;19.70;;
68300;SDS011;55146;47.468;18.806;2024-02-16T00:27:12;31.60;;;19.37;;
68300;SDS011;55146;47.468;18.806;2024-02-16T00:29:38;34.30;;;20.70;;
68300;SDS011;55146;47.468;18.806;2024-02-16T00:32:04;30.35;;;19.33;;
68300;SDS011;55146;47.468;18.806;2024-02-16T00:34:31;36.47;;;20.70;;
68300;SDS011;55146;47.468;18.806;2024-02-16T00:36:57;33.45;;;19.20;;
68300;SDS011;55146;47.468;18.806;2024-02-16T00:39:22;36.40;;;20.53;;
68300;SDS011;55146;47.468;18.806;2024-02-16T00:41:47;33.33;;;19.63;;
68300;SDS011;55146;47.468;18.806;2024-02-16T00:44:13;35.23;;;21.60;;
68300;SDS011;55146;47.468;18.806;2024-02-16T00:46:38;34.53;;;21.20;;
68300;SDS011;55146;47.468;18.806;2024-02-16T00:49:03;32.50;;;20.73;;
68300;SDS011;55146;47.468;18.806;2024-02-16T00:51:29;36.60;;;21.10;;
68300;SDS011;55146;47.468;18.806;2024-02-16T00:53:54;35.43;;;19.73;;
68300;SDS011;55146;47.468;18.806;2024-02-16T00:56:20;33.20;;;20.35;;
68300;SDS011;55146;47.468;18.806;2024-02-16T00:58:45;37.77;;;20.87;;
68300;SDS011;55146;47.468;18.806;2024-02-16T01:01:11;31.80;;;19.60;;
68300;SDS011;55146;47.468;18.806;2024-02-16T01:03:37;35.55;;;19.77;;
68300;SDS011;55146;47.468;18.806;2024-02-16T01:06:04;34.00;;;19.37;;
68300;SDS011;55146;47.468;18.806;2024-02-16T01:08:30;31.45;;;19.83;;
68300;SDS011;55146;47.468;18.806;2024-02-16T01:10:56;37.70;;;20.10;;
68300;SDS011;55146;47.468;18.806;2024-02-16T01:13:21;34.90;;;20.70;;
68300;SDS011;55146;47.468;18.806;2024-02-16T01:15:47;35.27;;;20.77;;
68300;SDS011;55146;47.468;18.806;2024-02-16T01:18:12;37.40;;;19.77;;
68300;SDS011;55146;47.468;18.806;2024-02-16T01:20:38;37.23;;;19.87;;
68300;SDS011;55146;47.468;18.806;2024-02-16T01:23:03;33.17;;;20.23;;
68300;SDS011;55146;47.468;18.806;2024-02-16T01:25:30;30.02;;;17.67;;
68300;SDS011;55146;47.468;18.806;2024-02-16T01:27:56;33.17;;;19.67;;
68300;SDS011;55146;47.468;18.806;2024-02-16T01:30:22;36.00;;;19.93;;
68300;SDS011;55146;47.468;18.806;2024-02-16T01:32:47;37.40;;;19.63;;
68300;SDS011;55146;47.468;18.806;2024-02-16T01:35:12;34.70;;;19.70;;
68300;SDS011;55146;47.468;18.806;2024-02-16T01:37:40;30.02;;;18.48;;
68300;SDS011;55146;47.468;18.806;2024-02-16T01:40:06;34.42;;;19.12;;
68300;SDS011;55146;47.468;18.806;2024-02-16T01:42:34;33.37;;;19.13;;
68300;SDS011;55146;47.468;18.806;2024-02-16T01:44:59;30.05;;;19.10;;
68300;SDS011;55146;47.468;18.806;2024-02-16T01:47:25;31.12;;;17.83;;
68300;SDS011;55146;47.468;18.806;2024-02-16T01:49:51;32.50;;;19.13;;
68300;SDS011;55146;47.468;18.806;2024-02-16T01:52:16;35.93;;;19.37;;
68300;SDS011;55146;47.468;18.806;2024-02-16T01:54:42;32.67;;;18.95;;
68300;SDS011;55146;47.468;18.806;2024-02-16T01:57:07;35.83;;;20.10;;
68300;SDS011;55146;47.468;18.806;2024-02-16T01:59:33;32.43;;;20.23;;
68300;SDS011;55146;47.468;18.806;2024-02-16T02:01:59;30.77;;;18.10;;
68300;SDS011;55146;47.468;18.806;2024-02-16T02:04:24;32.22;;;17.02;;
68300;SDS011;55146;47.468;18.806;2024-02-16T02:06:51;36.05;;;19.75;;
68300;SDS011;55146;47.468;18.806;2024-02-16T02:09:16;32.00;;;18.77;;
68300;SDS011;55146;47.468;18.806;2024-02-16T02:11:42;32.50;;;18.80;;
68300;SDS011;55146;47.468;18.806;2024-02-16T02:14:07;33.38;;;19.67;;
68300;SDS011;55146;47.468;18.806;2024-02-16T02:16:32;34.20;;;19.70;;
68300;SDS011;55146;47.468;18.806;2024-02-16T02:18:58;36.93;;;18.83;;
68300;SDS011;55146;47.468;18.806;2024-02-16T02:21:23;30.33;;;18.03;;
68300;SDS011;55146;47.468;18.806;2024-02-16T02:23:48;31.80;;;18.87;;
68300;SDS011;55146;47.468;18.806;2024-02-16T02:26:14;37.37;;;19.37;;
68300;SDS011;55146;47.468;18.806;2024-02-16T02:28:41;32.03;;;18.20;;
68300;SDS011;55146;47.468;18.806;2024-02-16T02:31:07;33.45;;;19.10;;
68300;SDS011;55146;47.468;18.806;2024-02-16T02:33:34;29.10;;;16.77;;
68300;SDS011;55146;47.468;18.806;2024-02-16T02:35:59;28.30;;;16.80;;
68300;SDS011;55146;47.468;18.806;2024-02-16T02:38:24;31.97;;;17.70;;
68300;SDS011;55146;47.468;18.806;2024-02-16T02:40:51;28.57;;;15.70;;
68300;SDS011;55146;47.468;18.806;2024-02-16T02:43:16;27.98;;;17.30;;
68300;SDS011;55146;47.468;18.806;2024-02-16T02:45:43;31.03;;;17.07;;
68300;SDS011;55146;47.468;18.806;2024-02-16T02:48:09;30.87;;;16.87;;
68300;SDS011;55146;47.468;18.806;2024-02-16T02:50:34;31.77;;;18.27;;
68300;SDS011;55146;47.468;18.806;2024-02-16T02:53:00;36.30;;;20.00;;
68300;SDS011;55146;47.468;18.806;2024-02-16T02:55:25;32.97;;;18.37;;
68300;SDS011;55146;47.468;18.806;2024-02-16T02:57:50;34.00;;;17.87;;
68300;SDS011;55146;47.468;18.806;2024-02-16T03:00:16;37.40;;;18.40;;
68300;SDS011;55146;47.468;18.806;2024-02-16T03:02:41;28.15;;;17.02;;
68300;SDS011;55146;47.468;18.806;2024-02-16T03:05:09;29.92;;;17.30;;
68300;SDS011;55146;47.468;18.806;2024-02-16T03:07:34;31.87;;;17.93;;
68300;SDS011;55146;47.468;18.806;2024-02-16T03:10:00;31.53;;;18.20;;
68300;SDS011;55146;47.468;18.806;2024-02-16T03:12:25;32.30;;;17.35;;
68300;SDS011;55146;47.468;18.806;2024-02-16T03:14:51;33.27;;;18.27;;
68300;SDS011;55146;47.468;18.806;2024-02-16T03:17:16;31.83;;;17.43;;
68300;SDS011;55146;47.468;18.806;2024-02-16T03:19:42;34.15;;;18.00;;
68300;SDS011;55146;47.468;18.806;2024-02-16T03:22:07;31.93;;;17.20;;
68300;SDS011;55146;47.468;18.806;2024-02-16T03:24:33;37.67;;;19.53;;
68300;SDS011;55146;47.468;18.806;2024-02-16T03:26:59;31.58;;;17.45;;
68300;SDS011;55146;47.468;18.806;2024-02-16T03:29:25;35.08;;;18.10;;
68300;SDS011;55146;47.468;18.806;2024-02-16T03:31:51;31.33;;;16.20;;
68300;SDS011;55146;47.468;18.806;2024-02-16T03:34:16;36.67;;;18.50;;
68300;SDS011;55146;47.468;18.806;2024-02-16T03:36:41;31.43;;;18.30;;
68300;SDS011;55146;47.468;18.806;2024-02-16T03:39:07;33.42;;;17.25;;
68300;SDS011;55146;47.468;18.806;2024-02-16T03:41:33;34.77;;;18.80;;
68300;SDS011;55146;47.468;18.806;2024-02-16T03:43:59;30.15;;;17.65;;
68300;SDS011;55146;47.468;18.806;2024-02-16T03:46:25;33.80;;;19.33;;
68300;SDS011;55146;47.468;18.806;2024-02-16T03:48:51;35.47;;;18.43;;
68300;SDS011;55146;47.468;18.806;2024-02-16T03:51:16;32.17;;;18.23;;
68300;SDS011;55146;47.468;18.806;2024-02-16T03:53:41;32.20;;;17.93;;
68300;SDS011;55146;47.468;18.806;2024-02-16T03:56:07;29.17;;;17.07;;
68300;SDS011;55146;47.468;18.806;2024-02-16T03:58:32;31.27;;;18.35;;
68300;SDS011;55146;47.468;18.806;2024-02-16T04:00:58;29.70;;;18.63;;
68300;SDS011;55146;47.468;18.806;2024-02-16T04:03:23;29.93;;;18.37;;
68300;SDS011;55146;47.468;18.806;2024-02-16T04:05:48;31.30;;;17.48;;
68300;SDS011;55146;47.468;18.806;2024-02-16T04:08:14;30.63;;;17.33;;
68300;SDS011;55146;47.468;18.806;2024-02-16T04:10:39;35.23;;;19.67;;
68300;SDS011;55146;47.468;18.806;2024-02-16T04:13:05;34.10;;;18.80;;
68300;SDS011;55146;47.468;18.806;2024-02-16T04:15:30;32.53;;;18.97;;
68300;SDS011;55146;47.468;18.806;2024-02-16T04:17:56;30.70;;;17.23;;
68300;SDS011;55146;47.468;18.806;2024-02-16T04:20:21;32.70;;;18.40;;
68300;SDS011;55146;47.468;18.806;2024-02-16T04:22:47;33.45;;;18.33;;
68300;SDS011;55146;47.468;18.806;2024-02-16T04:25:13;31.13;;;17.43;;
68300;SDS011;55146;47.468;18.806;2024-02-16T04:27:38;35.50;;;18.70;;
68300;SDS011;55146;47.468;18.806;2024-02-16T04:30:05;33.77;;;19.20;;
68300;SDS011;55146;47.468;18.806;2024-02-16T04:32:31;29.98;;;16.83;;
68300;SDS011;55146;47.468;18.806;2024-02-16T04:34:57;35.10;;;18.87;;
68300;SDS011;55146;47.468;18.806;2024-02-16T04:37:24;32.65;;;18.90;;
68300;SDS011;55146;47.468;18.806;2024-02-16T04:39:50;30.65;;;18.00;;
68300;SDS011;55146;47.468;18.806;2024-02-16T04:42:16;35.30;;;18.77;;
68300;SDS011;55146;47.468;18.806;2024-02-16T04:44:42;33.67;;;16.98;;
68300;SDS011;55146;47.468;18.806;2024-02-16T04:47:07;35.10;;;18.77;;
68300;SDS011;55146;47.468;18.806;2024-02-16T04:49:33;34.90;;;18.73;;
68300;SDS011;55146;47.468;18.806;2024-02-16T04:51:58;31.20;;;17.48;;
68300;SDS011;55146;47.468;18.806;2024-02-16T04:54:24;32.23;;;18.03;;
68300;SDS011;55146;47.468;18.806;2024-02-16T04:56:49;35.67;;;18.33;;
68300;SDS011;55146;47.468;18.806;2024-02-16T04:59:15;33.80;;;18.00;;
68300;SDS011;55146;47.468;18.806;2024-02-16T05:01:42;31.65;;;18.48;;
68300;SDS011;55146;47.468;18.806;2024-02-16T05:04:09;30.57;;;18.83;;
68300;SDS011;55146;47.468;18.806;2024-02-16T05:06:41;28.83;;;17.65;;
68300;SDS011;55146;47.468;18.806;2024-02-16T05:09:07;30.47;;;17.07;;
68300;SDS011;55146;47.468;18.806;2024-02-16T05:11:32;31.90;;;17.87;;
68300;SDS011;55146;47.468;18.806;2024-02-16T05:13:58;31.13;;;17.47;;
68300;SDS011;55146;47.468;18.806;2024-02-16T05:16:23;32.57;;;17.63;;
68300;SDS011;55146;47.468;18.806;2024-02-16T05:18:49;33.13;;;18.33;;
68300;SDS011;55146;47.468;18.806;2024-02-16T05:21:14;34.33;;;18.27;;
68300;SDS011;55146;47.468;18.806;2024-02-16T05:23:40;35.63;;;18.23;;
68300;SDS011;55146;47.468;18.806;2024-02-16T05:26:05;36.78;;;18.83;;
68300;SDS011;55146;47.468;18.806;2024-02-16T05:28:30;35.73;;;20.03;;
68300;SDS011;55146;47.468;18.806;2024-02-16T05:30:56;32.57;;;18.40;;
68300;SDS011;55146;47.468;18.806;2024-02-16T05:33:22;33.88;;;18.95;;
68300;SDS011;55146;47.468;18.806;2024-02-16T05:35:48;31.43;;;18.73;;
68300;SDS011;55146;47.468;18.806;2024-02-16T05:38:20;33.67;;;18.73;;
68300;SDS011;55146;47.468;18.806;2024-02-16T05:40:57;33.47;;;18.40;;
68300;SDS011;55146;47.468;18.806;2024-02-16T05:43:23;36.42;;;19.10;;
68300;SDS011;55146;47.468;18.806;2024-02-16T05:45:48;29.93;;;18.33;;
68300;SDS011;55146;47.468;18.806;2024-02-16T05:48:14;34.83;;;18.33;;
68300;SDS011;55146;47.468;18.806;2024-02-16T05:50:40;35.73;;;20.33;;
68300;SDS011;55146;47.468;18.806;2024-02-16T05:53:06;36.53;;;20.27;;
68300;SDS011;55146;47.468;18.806;2024-02-16T05:55:32;34.20;;;19.80;;
68300;SDS011;55146;47.468;18.806;2024-02-16T05:57:57;35.10;;;18.40;;
68300;SDS011;55146;47.468;18.806;2024-02-16T06:00:23;31.57;;;19.10;;
68300;SDS011;55146;47.468;18.806;2024-02-16T06:02:48;33.23;;;20.50;;
68300;SDS011;55146;47.468;18.806;2024-02-16T06:05:14;35.17;;;21.03;;
68300;SDS011;55146;47.468;18.806;2024-02-16T06:07:39;37.03;;;19.90;;
68300;SDS011;55146;47.468;18.806;2024-02-16T06:10:05;38.05;;;20.02;;
68300;SDS011;55146;47.468;18.806;2024-02-16T06:12:38;33.55;;;20.23;;
68300;SDS011;55146;47.468;18.806;2024-02-16T06:15:04;32.50;;;18.00;;
68300;SDS011;55146;47.468;18.806;2024-02-16T06:17:30;36.30;;;20.62;;
68300;SDS011;55146;47.468;18.806;2024-02-16T06:19:55;35.57;;;20.37;;
68300;SDS011;55146;47.468;18.806;2024-02-16T06:22:21;35.70;;;20.50;;
68300;SDS011;55146;47.468;18.806;2024-02-16T06:24:46;33.40;;;18.93;;
68300;SDS011;55146;47.468;18.806;2024-02-16T06:27:12;34.38;;;19.67;;
68300;SDS011;55146;47.468;18.806;2024-02-16T06:29:38;40.60;;;19.00;;
68300;SDS011;55146;47.468;18.806;2024-02-16T06:32:03;33.07;;;20.73;;
68300;SDS011;55146;47.468;18.806;2024-02-16T06:34:29;36.30;;;21.10;;
68300;SDS011;55146;47.468;18.806;2024-02-16T06:36:55;33.90;;;19.30;;
68300;SDS011;55146;47.468;18.806;2024-02-16T06:39:21;33.17;;;19.40;;
68300;SDS011;55146;47.468;18.806;2024-02-16T06:41:47;39.63;;;20.90;;
68300;SDS011;55146;47.468;18.806;2024-02-16T06:44:12;36.22;;;21.50;;
68300;SDS011;55146;47.468;18.806;2024-02-16T06:46:38;37.27;;;19.97;;
68300;SDS011;55146;47.468;18.806;2024-02-16T06:49:04;36.97;;;22.65;;
68300;SDS011;55146;47.468;18.806;2024-02-16T06:51:29;33.67;;;19.87;;
68300;SDS011;55146;47.468;18.806;2024-02-16T06:53:54;35.03;;;20.30;;
68300;SDS011;55146;47.468;18.806;2024-02-16T06:56:20;32.20;;;19.87;;
68300;SDS011;55146;47.468;18.806;2024-02-16T06:58:46;36.22;;;20.77;;
68300;SDS011;55146;47.468;18.806;2024-02-16T07:01:12;32.15;;;19.23;;
68300;SDS011;55146;47.468;18.806;2024-02-16T07:03:38;38.30;;;21.17;;
68300;SDS011;55146;47.468;18.806;2024-02-16T07:06:04;31.48;;;20.88;;
68300;SDS011;55146;47.468;18.806;2024-02-16T07:08:32;40.47;;;22.13;;
68300;SDS011;55146;47.468;18.806;2024-02-16T07:10:58;35.13;;;21.23;;
68300;SDS011;55146;47.468;18.806;2024-02-16T07:13:23;34.50;;;21.13;;
68300;SDS011;55146;47.468;18.806;2024-02-16T07:15:49;40.03;;;21.33;;
68300;SDS011;55146;47.468;18.806;2024-02-16T07:18:15;38.17;;;21.77;;
68300;SDS011;55146;47.468;18.806;2024-02-16T07:20:40;33.83;;;21.12;;
68300;SDS011;55146;47.468;18.806;2024-02-16T07:23:06;34.87;;;20.50;;
68300;SDS011;55146;47.468;18.806;2024-02-16T07:25:31;35.03;;;21.07;;
68300;SDS011;55146;47.468;18.806;2024-02-16T07:27:57;33.73;;;20.37;;
68300;SDS011;55146;47.468;18.806;2024-02-16T07:30:22;36.03;;;21.10;;
68300;SDS011;55146;47.468;18.806;2024-02-16T07:32:48;38.10;;;22.90;;
68300;SDS011;55146;47.468;18.806;2024-02-16T07:35:15;37.92;;;22.42;;
68300;SDS011;55146;47.468;18.806;2024-02-16T07:37:41;37.33;;;23.10;;
68300;SDS011;55146;47.468;18.806;2024-02-16T07:40:07;34.17;;;21.23;;
68300;SDS011;55146;47.468;18.806;2024-02-16T07:42:37;36.00;;;20.13;;
68300;SDS011;55146;47.468;18.806;2024-02-16T07:45:05;37.83;;;21.20;;
68300;SDS011;55146;47.468;18.806;2024-02-16T07:47:31;36.67;;;23.05;;
68300;SDS011;55146;47.468;18.806;2024-02-16T07:49:57;31.67;;;20.00;;
68300;SDS011;55146;47.468;18.806;2024-02-16T07:52:22;33.80;;;20.03;;
68300;SDS011;55146;47.468;18.806;2024-02-16T07:54:48;34.57;;;20.37;;
68300;SDS011;55146;47.468;18.806;2024-02-16T07:57:13;32.77;;;20.00;;
68300;SDS011;55146;47.468;18.806;2024-02-16T07:59:40;33.13;;;20.40;;
68300;SDS011;55146;47.468;18.806;2024-02-16T08:02:05;33.57;;;20.03;;
68300;SDS011;55146;47.468;18.806;2024-02-16T08:04:32;34.25;;;19.70;;
68300;SDS011;55146;47.468;18.806;2024-02-16T08:06:57;34.03;;;20.63;;
68300;SDS011;55146;47.468;18.806;2024-02-16T08:09:23;36.75;;;20.08;;
68300;SDS011;55146;47.468;18.806;2024-02-16T08:11:48;31.10;;;20.33;;
68300;SDS011;55146;47.468;18.806;2024-02-16T08:14:13;32.67;;;21.13;;
68300;SDS011;55146;47.468;18.806;2024-02-16T08:16:39;33.97;;;20.07;;
68300;SDS011;55146;47.468;18.806;2024-02-16T08:19:04;35.63;;;20.77;;
68300;SDS011;55146;47.468;18.806;2024-02-16T08:21:30;31.27;;;18.47;;
68300;SDS011;55146;47.468;18.806;2024-02-16T08:23:56;33.77;;;21.03;;
68300;SDS011;55146;47.468;18.806;2024-02-16T08:26:21;29.73;;;18.23;;
68300;SDS011;55146;47.468;18.806;2024-02-16T08:28:46;29.83;;;18.23;;
68300;SDS011;55146;47.468;18.806;2024-02-16T08:31:18;34.73;;;20.90;;
68300;SDS011;55146;47.468;18.806;2024-02-16T08:33:44;32.65;;;20.35;;
68300;SDS011;55146;47.468;18.806;2024-02-16T08:36:10;33.63;;;19.95;;
68300;SDS011;55146;47.468;18.806;2024-02-16T08:38:38;35.07;;;21.03;;
68300;SDS011;55146;47.468;18.806;2024-02-16T08:41:04;32.60;;;19.50;;
68300;SDS011;55146;47.468;18.806;2024-02-16T08:43:30;30.17;;;19.43;;
68300;SDS011;55146;47.468;18.806;2024-02-16T08:45:55;27.53;;;18.17;;
68300;SDS011;55146;47.468;18.806;2024-02-16T08:48:21;31.08;;;18.00;;
68300;SDS011;55146;47.468;18.806;2024-02-16T08:50:46;28.73;;;17.87;;
68300;SDS011;55146;47.468;18.806;2024-02-16T08:53:12;30.93;;;17.60;;
68300;SDS011;55146;47.468;18.806;2024-02-16T08:55:39;30.98;;;18.52;;
68300;SDS011;55146;47.468;18.806;2024-02-16T08:58:06;27.27;;;16.60;;
68300;SDS011;55146;47.468;18.806;2024-02-16T09:00:33;26.15;;;15.52;;
68300;SDS011;55146;47.468;18.806;2024-02-16T09:02:58;22.60;;;14.17;;
68300;SDS011;55146;47.468;18.806;2024-02-16T09:05:27;22.13;;;14.95;;
68300;SDS011;55146;47.468;18.806;2024-02-16T09:07:52;23.67;;;14.57;;
68300;SDS011;55146;47.468;18.806;2024-02-16T09:10:18;22.77;;;13.68;;
68300;SDS011;55146;47.468;18.806;2024-02-16T09:12:43;22.30;;;13.53;;
68300;SDS011;55146;47.468;18.806;2024-02-16T09:15:09;21.90;;;12.67;;
68300;SDS011;55146;47.468;18.806;2024-02-16T09:17:34;21.47;;;12.30;;
68300;SDS011;55146;47.468;18.806;2024-02-16T09:19:59;24.07;;;14.00;;
68300;SDS011;55146;47.468;18.806;2024-02-16T09:22:25;18.77;;;11.55;;
68300;SDS011;55146;47.468;18.806;2024-02-16T09:24:50;19.33;;;11.40;;
68300;SDS011;55146;47.468;18.806;2024-02-16T09:27:16;18.77;;;11.57;;
68300;SDS011;55146;47.468;18.806;2024-02-16T09:29:41;21.57;;;10.43;;
68300;SDS011;55146;47.468;18.806;2024-02-16T09:32:06;19.97;;;10.37;;
68300;SDS011;55146;47.468;18.806;2024-02-16T09:34:32;20.27;;;11.63;;
68300;SDS011;55146;47.468;18.806;2024-02-16T09:36:57;19.85;;;11.77;;
68300;SDS011;55146;47.468;18.806;2024-02-16T09:39:22;16.03;;;10.53;;
68300;SDS011;55146;47.468;18.806;2024-02-16T09:41:49;18.20;;;9.80;;
68300;SDS011;55146;47.468;18.806;2024-02-16T09:44:16;18.90;;;10.52;;
68300;SDS011;55146;47.468;18.806;2024-02-16T09:46:42;17.53;;;10.83;;
68300;SDS011;55146;47.468;18.806;2024-02-16T09:49:08;20.00;;;11.43;;
68300;SDS011;55146;47.468;18.806;2024-02-16T09:51:37;17.23;;;10.67;;
68300;SDS011;55146;47.468;18.806;2024-02-16T09:54:03;20.05;;;10.68;;
68300;SDS011;55146;47.468;18.806;2024-02-16T09:56:28;16.17;;;9.73;;
68300;SDS011;55146;47.468;18.806;2024-02-16T09:58:54;17.83;;;10.10;;
68300;SDS011;55146;47.468;18.806;2024-02-16T10:01:22;19.80;;;10.90;;
68300;SDS011;55146;47.468;18.806;2024-02-16T10:03:49;18.17;;;10.20;;
68300;SDS011;55146;47.468;18.806;2024-02-16T10:06:15;19.08;;;10.95;;
68300;SDS011;55146;47.468;18.806;2024-02-16T10:11:22;21.25;;;10.48;;
68300;SDS011;55146;47.468;18.806;2024-02-16T10:14:03;18.65;;;10.68;;
68300;SDS011;55146;47.468;18.806;2024-02-16T10:16:29;21.43;;;11.40;;
68300;SDS011;55146;47.468;18.806;2024-02-16T10:18:56;19.02;;;10.98;;
68300;SDS011;55146;47.468;18.806;2024-02-16T10:21:29;21.98;;;10.98;;
68300;SDS011;55146;47.468;18.806;2024-02-16T10:23:55;17.48;;;11.32;;
68300;SDS011;55146;47.468;18.806;2024-02-16T10:26:22;19.77;;;11.77;;
68300;SDS011;55146;47.468;18.806;2024-02-16T10:28:47;18.73;;;10.23;;
68300;SDS011;55146;47.468;18.806;2024-02-16T10:31:16;17.42;;;11.65;;
68300;SDS011;55146;47.468;18.806;2024-02-16T10:33:42;18.63;;;10.47;;
68300;SDS011;55146;47.468;18.806;2024-02-16T10:36:08;18.20;;;11.43;;
68300;SDS011;55146;47.468;18.806;2024-02-16T10:38:35;16.90;;;10.65;;
68300;SDS011;55146;47.468;18.806;2024-02-16T10:41:02;20.58;;;10.98;;
68300;SDS011;55146;47.468;18.806;2024-02-16T10:43:27;21.23;;;11.33;;
68300;SDS011;55146;47.468;18.806;2024-02-16T10:45:54;16.55;;;9.40;;
68300;SDS011;55146;47.468;18.806;2024-02-16T10:48:22;19.02;;;11.25;;
68300;SDS011;55146;47.468;18.806;2024-02-16T10:50:47;21.83;;;11.33;;
68300;SDS011;55146;47.468;18.806;2024-02-16T10:53:22;22.23;;;11.07;;
68300;SDS011;55146;47.468;18.806;2024-02-16T10:55:50;14.55;;;8.90;;
68300;SDS011;55146;47.468;18.806;2024-02-16T10:58:19;21.20;;;8.70;;
68300;SDS011;55146;47.468;18.806;2024-02-16T11:00:52;14.10;;;8.27;;
68300;SDS011;55146;47.468;18.806;2024-02-16T11:03:20;14.70;;;9.57;;
68300;SDS011;55146;47.468;18.806;2024-02-16T11:05:50;13.40;;;8.75;;
68300;SDS011;55146;47.468;18.806;2024-02-16T11:08:17;14.60;;;8.82;;
68300;SDS011;55146;47.468;18.806;2024-02-16T11:10:59;14.87;;;7.68;;
68300;SDS011;55146;47.468;18.806;2024-02-16T11:13:27;16.70;;;8.87;;
68300;SDS011;55146;47.468;18.806;2024-02-16T11:15:58;19.17;;;7.62;;
68300;SDS011;55146;47.468;18.806;2024-02-16T11:18:24;12.40;;;8.18;;
68300;SDS011;55146;47.468;18.806;2024-02-16T11:20:50;11.85;;;7.22;;
68300;SDS011;55146;47.468;18.806;2024-02-16T11:23:19;10.60;;;6.82;;
68300;SDS011;55146;47.468;18.806;2024-02-16T11:25:51;14.70;;;7.60;;
68300;SDS011;55146;47.468;18.806;2024-02-16T11:28:17;12.95;;;8.38;;
68300;SDS011;55146;47.468;18.806;2024-02-16T11:30:43;11.80;;;7.60;;
68300;SDS011;55146;47.468;18.806;2024-02-16T11:33:12;13.07;;;7.28;;
68300;SDS011;55146;47.468;18.806;2024-02-16T11:35:37;14.65;;;7.85;;
68300;SDS011;55146;47.468;18.806;2024-02-16T11:38:03;12.73;;;8.80;;
68300;SDS011;55146;47.468;18.806;2024-02-16T11:40:29;13.32;;;9.55;;
68300;SDS011;55146;47.468;18.806;2024-02-16T11:42:59;15.32;;;8.07;;
68300;SDS011;55146;47.468;18.806;2024-02-16T11:45:25;13.02;;;7.68;;
68300;SDS011;55146;47.468;18.806;2024-02-16T11:47:51;11.68;;;7.93;;
68300;SDS011;55146;47.468;18.806;2024-02-16T11:50:27;16.23;;;9.57;;
68300;SDS011;55146;47.468;18.806;2024-02-16T11:52:53;15.00;;;9.40;;
68300;SDS011;55146;47.468;18.806;2024-02-16T11:55:18;13.60;;;7.82;;
68300;SDS011;55146;47.468;18.806;2024-02-16T11:57:43;12.57;;;8.13;;
68300;SDS011;55146;47.468;18.806;2024-02-16T12:00:13;13.15;;;8.25;;
68300;SDS011;55146;47.468;18.806;2024-02-16T12:02:40;13.73;;;9.30;;
68300;SDS011;55146;47.468;18.806;2024-02-16T12:05:05;14.63;;;7.50;;
68300;SDS011;55146;47.468;18.806;2024-02-16T12:07:32;13.50;;;8.30;;
68300;SDS011;55146;47.468;18.806;2024-02-16T12:09:59;12.83;;;7.43;;
68300;SDS011;55146;47.468;18.806;2024-02-16T12:12:26;12.30;;;7.37;;
68300;SDS011;55146;47.468;18.806;2024-02-16T12:14:53;12.55;;;8.13;;
68300;SDS011;55146;47.468;18.806;2024-02-16T12:17:19;12.50;;;8.20;;
68300;SDS011;55146;47.468;18.806;2024-02-16T12:19:45;13.57;;;8.03;;
68300;SDS011;55146;47.468;18.806;2024-02-16T12:22:15;17.20;;;9.15;;
68300;SDS011;55146;47.468;18.806;2024-02-16T12:24:45;14.20;;;8.50;;
68300;SDS011;55146;47.468;18.806;2024-02-16T12:27:11;12.97;;;9.00;;
68300;SDS011;55146;47.468;18.806;2024-02-16T12:29:36;13.82;;;8.00;;
68300;SDS011;55146;47.468;18.806;2024-02-16T12:32:02;13.93;;;9.10;;
68300;SDS011;55146;47.468;18.806;2024-02-16T12:34:27;12.83;;;7.83;;
68300;SDS011;55146;47.468;18.806;2024-02-16T12:36:53;13.70;;;7.70;;
68300;SDS011;55146;47.468;18.806;2024-02-16T12:39:18;13.60;;;7.67;;
68300;SDS011;55146;47.468;18.806;2024-02-16T12:41:44;11.00;;;6.37;;
68300;SDS011;55146;47.468;18.806;2024-02-16T12:44:09;12.63;;;7.23;;
68300;SDS011;55146;47.468;18.806;2024-02-16T12:46:34;11.67;;;7.33;;
68300;SDS011;55146;47.468;18.806;2024-02-16T12:49:00;13.32;;;6.78;;
68300;SDS011;55146;47.468;18.806;2024-02-16T12:51:25;11.83;;;7.30;;
68300;SDS011;55146;47.468;18.806;2024-02-16T12:53:51;11.40;;;8.27;;
68300;SDS011;55146;47.468;18.806;2024-02-16T12:56:17;13.48;;;7.22;;
68300;SDS011;55146;47.468;18.806;2024-02-16T12:58:43;11.63;;;6.83;;
68300;SDS011;55146;47.468;18.806;2024-02-16T13:01:08;12.67;;;8.37;;
68300;SDS011;55146;47.468;18.806;2024-02-16T13:03:34;11.23;;;8.38;;
68300;SDS011;55146;47.468;18.806;2024-02-16T13:06:00;13.90;;;8.13;;
68300;SDS011;55146;47.468;18.806;2024-02-16T13:08:25;11.00;;;7.20;;
68300;SDS011;55146;47.468;18.806;2024-02-16T13:10:50;11.43;;;7.00;;
68300;SDS011;55146;47.468;18.806;2024-02-16T13:13:16;13.17;;;7.77;;
68300;SDS011;55146;47.468;18.806;2024-02-16T13:15:41;12.70;;;7.63;;
68300;SDS011;55146;47.468;18.806;2024-02-16T13:18:06;15.07;;;8.80;;
68300;SDS011;55146;47.468;18.806;2024-02-16T13:20:32;15.93;;;8.97;;
68300;SDS011;55146;47.468;18.806;2024-02-16T13:22:59;12.95;;;7.47;;
68300;SDS011;55146;47.468;18.806;2024-02-16T13:25:25;14.57;;;7.60;;
68300;SDS011;55146;47.468;18.806;2024-02-16T13:27:50;13.60;;;7.90;;
68300;SDS011;55146;47.468;18.806;2024-02-16T13:30:15;16.40;;;9.23;;
68300;SDS011;55146;47.468;18.806;2024-02-16T13:32:41;13.47;;;8.27;;
68300;SDS011;55146;47.468;18.806;2024-02-16T13:35:06;13.37;;;8.10;;
68300;SDS011;55146;47.468;18.806;2024-02-16T13:37:32;14.93;;;8.55;;
68300;SDS011;55146;47.468;18.806;2024-02-16T13:39:57;14.53;;;8.53;;
68300;SDS011;55146;47.468;18.806;2024-02-16T13:42:23;13.13;;;7.83;;
68300;SDS011;55146;47.468;18.806;2024-02-16T13:44:49;13.82;;;8.95;;
68300;SDS011;55146;47.468;18.806;2024-02-16T13:47:14;12.80;;;8.70;;
68300;SDS011;55146;47.468;18.806;2024-02-16T13:49:40;15.47;;;9.07;;
68300;SDS011;55146;47.468;18.806;2024-02-16T13:52:05;12.18;;;7.75;;
68300;SDS011;55146;47.468;18.806;2024-02-16T13:54:31;13.73;;;7.40;;
68300;SDS011;55146;47.468;18.806;2024-02-16T13:56:56;13.33;;;7.97;;
68300;SDS011;55146;47.468;18.806;2024-02-16T13:59:21;12.60;;;7.83;;
68300;SDS011;55146;47.468;18.806;2024-02-16T14:01:47;16.43;;;8.53;;
68300;SDS011;55146;47.468;18.806;2024-02-16T14:04:13;15.52;;;8.75;;
68300;SDS011;55146;47.468;18.806;2024-02-16T14:06:39;12.20;;;8.07;;